sensor_id;sensor_type;location;lat;lon;timestamp;temperature;humidity
34873;DHT22;21084;51.098;14.506;2024-03-23T00:55:13;6.90;99.90
34873;DHT22;21084;51.098;14.506;2024-03-23T00:57:41;6.80;99.90
34873;DHT22;21084;51.098;14.506;2024-03-23T01:00:07;6.70;99.90
34873;DHT22;21084;51.098;14.506;2024-03-23T01:02:36;6.70;99.90
34873;DHT22;21084;51.098;14.506;2024-03-23T01:05:03;6.80;99.90
34873;DHT22;21084;51.098;14.506;2024-03-23T01:07:30;6.70;99.90
34873;DHT22;21084;51.098;14.506;2024-03-23T01:09:56;6.70;99.90
34873;DHT22;21084;51.098;14.506;2024-03-23T01:12:25;6.70;99.90
34873;DHT22;21084;51.098;14.506;2024-03-23T01:14:51;6.60;99.90
34873;DHT22;21084;51.098;14.506;2024-03-23T01:17:18;6.50;99.90
34873;DHT22;21084;51.098;14.506;2024-03-23T01:19:45;6.40;99.90
34873;DHT22;21084;51.098;14.506;2024-03-23T01:22:12;6.30;99.90
34873;DHT22;21084;51.098;14.506;2024-03-23T01:24:38;6.30;99.90
34873;DHT22;21084;51.098;14.506;2024-03-23T01:27:05;6.30;99.90
34873;DHT22;21084;51.098;14.506;2024-03-23T01:29:33;6.30;99.90
34873;DHT22;21084;51.098;14.506;2024-03-23T01:32:00;6.30;99.90
34873;DHT22;21084;51.098;14.506;2024-03-23T01:34:27;6.20;99.90
34873;DHT22;21084;51.098;14.506;2024-03-23T01:36:54;6.10;99.90
34873;DHT22;21084;51.098;14.506;2024-03-23T01:39:20;6.00;99.90
34873;DHT22;21084;51.098;14.506;2024-03-23T01:41:48;5.90;99.90
34873;DHT22;21084;51.098;14.506;2024-03-23T01:44:14;5.80;99.90
34873;DHT22;21084;51.098;14.506;2024-03-23T01:46:43;5.80;99.90
34873;DHT22;21084;51.098;14.506;2024-03-23T01:49:10;5.70;99.90
34873;DHT22;21084;51.098;14.506;2024-03-23T01:51:37;5.60;99.90
34873;DHT22;21084;51.098;14.506;2024-03-23T01:54:04;5.50;99.90
34873;DHT22;21084;51.098;14.506;2024-03-23T01:56:32;5.50;99.90
34873;DHT22;21084;51.098;14.506;2024-03-23T01:58:59;5.40;99.90
34873;DHT22;21084;51.098;14.506;2024-03-23T02:01:26;5.30;99.90
34873;DHT22;21084;51.098;14.506;2024-03-23T02:03:54;5.20;99.90
34873;DHT22;21084;51.098;14.506;2024-03-23T02:06:21;5.10;99.90
34873;DHT22;21084;51.098;14.506;2024-03-23T02:08:48;5.00;99.90
34873;DHT22;21084;51.098;14.506;2024-03-23T02:11:15;5.00;99.90
34873;DHT22;21084;51.098;14.506;2024-03-23T02:13:41;4.90;99.90
34873;DHT22;21084;51.098;14.506;2024-03-23T02:16:09;4.90;99.90
34873;DHT22;21084;51.098;14.506;2024-03-23T02:18:35;5.00;99.90
34873;DHT22;21084;51.098;14.506;2024-03-23T02:21:04;4.90;99.90
34873;DHT22;21084;51.098;14.506;2024-03-23T02:23:32;4.80;99.90
34873;DHT22;21084;51.098;14.506;2024-03-23T02:25:59;4.70;99.90
34873;DHT22;21084;51.098;14.506;2024-03-23T02:28:26;4.60;99.90
34873;DHT22;21084;51.098;14.506;2024-03-23T02:30:53;4.60;99.90
34873;DHT22;21084;51.098;14.506;2024-03-23T02:33:19;4.50;99.90
34873;DHT22;21084;51.098;14.506;2024-03-23T02:35:46;4.40;99.90
34873;DHT22;21084;51.098;14.506;2024-03-23T02:38:14;4.30;99.90
34873;DHT22;21084;51.098;14.506;2024-03-23T02:40:41;4.30;99.90
34873;DHT22;21084;51.098;14.506;2024-03-23T02:43:09;4.20;99.90
34873;DHT22;21084;51.098;14.506;2024-03-23T02:45:35;4.20;99.90
34873;DHT22;21084;51.098;14.506;2024-03-23T02:48:03;4.10;99.90
34873;DHT22;21084;51.098;14.506;2024-03-23T02:50:29;4.00;99.90
34873;DHT22;21084;51.098;14.506;2024-03-23T02:52:57;4.00;99.90
34873;DHT22;21084;51.098;14.506;2024-03-23T02:55:23;4.00;99.90
34873;DHT22;21084;51.098;14.506;2024-03-23T02:57:52;3.90;99.90
34873;DHT22;21084;51.098;14.506;2024-03-23T03:00:18;3.90;99.90
34873;DHT22;21084;51.098;14.506;2024-03-23T03:02:45;3.90;99.90
34873;DHT22;21084;51.098;14.506;2024-03-23T03:05:12;4.00;99.90
34873;DHT22;21084;51.098;14.506;2024-03-23T03:07:39;4.10;99.90
34873;DHT22;21084;51.098;14.506;2024-03-23T03:10:06;4.20;99.90
34873;DHT22;21084;51.098;14.506;2024-03-23T03:12:37;4.20;99.90
34873;DHT22;21084;51.098;14.506;2024-03-23T03:15:05;4.30;99.90
34873;DHT22;21084;51.098;14.506;2024-03-23T03:17:33;4.30;99.90
34873;DHT22;21084;51.098;14.506;2024-03-23T03:19:59;4.30;99.90
34873;DHT22;21084;51.098;14.506;2024-03-23T03:22:26;4.30;99.90
34873;DHT22;21084;51.098;14.506;2024-03-23T03:24:53;4.40;99.90
34873;DHT22;21084;51.098;14.506;2024-03-23T03:27:20;4.50;99.90
34873;DHT22;21084;51.098;14.506;2024-03-23T03:29:47;4.60;99.90
34873;DHT22;21084;51.098;14.506;2024-03-23T03:32:15;4.70;99.90
34873;DHT22;21084;51.098;14.506;2024-03-23T03:34:42;4.80;99.90
34873;DHT22;21084;51.098;14.506;2024-03-23T03:37:09;4.80;99.90
34873;DHT22;21084;51.098;14.506;2024-03-23T03:39:35;4.90;99.90
34873;DHT22;21084;51.098;14.506;2024-03-23T03:42:03;5.00;99.90
34873;DHT22;21084;51.098;14.506;2024-03-23T03:44:32;5.00;99.90
34873;DHT22;21084;51.098;14.506;2024-03-23T03:47:00;5.10;99.90
34873;DHT22;21084;51.098;14.506;2024-03-23T03:49:27;5.10;99.90
34873;DHT22;21084;51.098;14.506;2024-03-23T03:51:54;5.20;99.90
34873;DHT22;21084;51.098;14.506;2024-03-23T03:54:21;5.20;99.90
34873;DHT22;21084;51.098;14.506;2024-03-23T03:56:48;5.30;99.90
34873;DHT22;21084;51.098;14.506;2024-03-23T03:59:14;5.30;99.90
34873;DHT22;21084;51.098;14.506;2024-03-23T04:01:42;5.40;99.90
34873;DHT22;21084;51.098;14.506;2024-03-23T04:04:08;5.40;99.90
34873;DHT22;21084;51.098;14.506;2024-03-23T04:06:37;5.40;99.90
34873;DHT22;21084;51.098;14.506;2024-03-23T04:09:03;5.40;99.90
34873;DHT22;21084;51.098;14.506;2024-03-23T04:11:32;5.40;99.90
34873;DHT22;21084;51.098;14.506;2024-03-23T04:13:58;5.40;99.90
34873;DHT22;21084;51.098;14.506;2024-03-23T04:16:26;5.50;99.90
34873;DHT22;21084;51.098;14.506;2024-03-23T04:18:53;5.50;99.90
34873;DHT22;21084;51.098;14.506;2024-03-23T04:21:20;5.50;99.90
34873;DHT22;21084;51.098;14.506;2024-03-23T04:23:48;5.50;99.90
34873;DHT22;21084;51.098;14.506;2024-03-23T04:26:15;5.60;99.90
34873;DHT22;21084;51.098;14.506;2024-03-23T04:28:41;5.60;99.90
34873;DHT22;21084;51.098;14.506;2024-03-23T04:31:09;5.60;99.90
34873;DHT22;21084;51.098;14.506;2024-03-23T04:33:35;5.60;99.90
34873;DHT22;21084;51.098;14.506;2024-03-23T04:36:02;5.50;99.90
34873;DHT22;21084;51.098;14.506;2024-03-23T04:38:29;5.40;99.90
34873;DHT22;21084;51.098;14.506;2024-03-23T04:40:57;5.30;99.90
34873;DHT22;21084;51.098;14.506;2024-03-23T04:43:25;5.20;99.90
34873;DHT22;21084;51.098;14.506;2024-03-23T04:45:52;5.10;99.90
34873;DHT22;21084;51.098;14.506;2024-03-23T04:48:20;5.00;99.90
34873;DHT22;21084;51.098;14.506;2024-03-23T04:50:47;4.90;99.90
34873;DHT22;21084;51.098;14.506;2024-03-23T04:53:15;4.90;99.90
34873;DHT22;21084;51.098;14.506;2024-03-23T04:55:43;4.90;99.90
34873;DHT22;21084;51.098;14.506;2024-03-23T04:58:12;4.80;99.90
34873;DHT22;21084;51.098;14.506;2024-03-23T05:00:38;4.70;99.90
34873;DHT22;21084;51.098;14.506;2024-03-23T05:03:06;4.70;99.90
34873;DHT22;21084;51.098;14.506;2024-03-23T05:05:32;4.70;99.90
34873;DHT22;21084;51.098;14.506;2024-03-23T05:07:59;4.60;99.90
34873;DHT22;21084;51.098;14.506;2024-03-23T05:10:25;4.60;99.90
34873;DHT22;21084;51.098;14.506;2024-03-23T05:12:53;4.50;99.90
34873;DHT22;21084;51.098;14.506;2024-03-23T05:15:21;4.40;99.90
34873;DHT22;21084;51.098;14.506;2024-03-23T05:17:48;4.30;99.90
34873;DHT22;21084;51.098;14.506;2024-03-23T05:20:14;4.30;99.90
34873;DHT22;21084;51.098;14.506;2024-03-23T05:22:42;4.20;99.90
34873;DHT22;21084;51.098;14.506;2024-03-23T05:25:09;4.20;99.90
34873;DHT22;21084;51.098;14.506;2024-03-23T05:27:37;4.10;99.90
34873;DHT22;21084;51.098;14.506;2024-03-23T05:30:04;4.10;99.90
34873;DHT22;21084;51.098;14.506;2024-03-23T05:32:33;4.10;99.90
34873;DHT22;21084;51.098;14.506;2024-03-23T05:34:59;4.10;99.90
34873;DHT22;21084;51.098;14.506;2024-03-23T05:37:27;4.20;99.90
34873;DHT22;21084;51.098;14.506;2024-03-23T05:39:53;4.20;99.90
34873;DHT22;21084;51.098;14.506;2024-03-23T05:42:20;4.20;99.90
34873;DHT22;21084;51.098;14.506;2024-03-23T05:44:47;4.20;99.90
34873;DHT22;21084;51.098;14.506;2024-03-23T05:47:14;4.30;99.90
34873;DHT22;21084;51.098;14.506;2024-03-23T05:49:45;4.40;99.90
34873;DHT22;21084;51.098;14.506;2024-03-23T05:52:13;4.50;99.90
34873;DHT22;21084;51.098;14.506;2024-03-23T05:54:39;4.50;99.90
34873;DHT22;21084;51.098;14.506;2024-03-23T05:57:06;4.60;99.90
34873;DHT22;21084;51.098;14.506;2024-03-23T05:59:33;4.70;99.90
34873;DHT22;21084;51.098;14.506;2024-03-23T06:02:00;4.80;99.90
34873;DHT22;21084;51.098;14.506;2024-03-23T06:04:27;5.00;99.90
34873;DHT22;21084;51.098;14.506;2024-03-23T06:06:55;5.30;99.90
34873;DHT22;21084;51.098;14.506;2024-03-23T06:09:23;5.60;99.90
34873;DHT22;21084;51.098;14.506;2024-03-23T06:11:51;5.80;99.90
34873;DHT22;21084;51.098;14.506;2024-03-23T06:14:17;6.10;99.90
34873;DHT22;21084;51.098;14.506;2024-03-23T06:16:45;6.30;99.90
34873;DHT22;21084;51.098;14.506;2024-03-23T06:19:11;6.50;99.90
34873;DHT22;21084;51.098;14.506;2024-03-23T06:21:42;6.60;99.90
34873;DHT22;21084;51.098;14.506;2024-03-23T06:24:10;6.70;99.90
34873;DHT22;21084;51.098;14.506;2024-03-23T06:26:37;6.80;99.90
34873;DHT22;21084;51.098;14.506;2024-03-23T06:29:03;6.80;99.90
34873;DHT22;21084;51.098;14.506;2024-03-23T06:31:31;6.90;99.90
34873;DHT22;21084;51.098;14.506;2024-03-23T06:33:57;7.00;99.90
34873;DHT22;21084;51.098;14.506;2024-03-23T06:36:24;7.10;99.90
34873;DHT22;21084;51.098;14.506;2024-03-23T06:38:52;7.20;99.90
34873;DHT22;21084;51.098;14.506;2024-03-23T06:41:20;7.30;99.90
34873;DHT22;21084;51.098;14.506;2024-03-23T06:43:47;7.40;99.90
34873;DHT22;21084;51.098;14.506;2024-03-23T06:46:14;7.50;99.90
34873;DHT22;21084;51.098;14.506;2024-03-23T06:48:40;7.70;99.90
34873;DHT22;21084;51.098;14.506;2024-03-23T06:51:07;7.90;99.90
34873;DHT22;21084;51.098;14.506;2024-03-23T06:53:35;7.90;99.90
34873;DHT22;21084;51.098;14.506;2024-03-23T06:56:02;7.90;99.90
34873;DHT22;21084;51.098;14.506;2024-03-23T06:58:30;7.90;99.90
34873;DHT22;21084;51.098;14.506;2024-03-23T07:00:57;7.90;99.90
34873;DHT22;21084;51.098;14.506;2024-03-23T07:03:23;8.00;99.90
34873;DHT22;21084;51.098;14.506;2024-03-23T07:05:52;7.90;99.90
34873;DHT22;21084;51.098;14.506;2024-03-23T07:08:18;8.00;99.90
34873;DHT22;21084;51.098;14.506;2024-03-23T07:10:48;8.00;99.90
34873;DHT22;21084;51.098;14.506;2024-03-23T07:13:14;8.00;99.90
34873;DHT22;21084;51.098;14.506;2024-03-23T07:15:44;7.90;99.90
34873;DHT22;21084;51.098;14.506;2024-03-23T07:18:16;7.90;99.90
34873;DHT22;21084;51.098;14.506;2024-03-23T07:20:51;7.90;99.90
34873;DHT22;21084;51.098;14.506;2024-03-23T07:23:18;7.90;99.90
34873;DHT22;21084;51.098;14.506;2024-03-23T07:25:55;7.90;99.90
34873;DHT22;21084;51.098;14.506;2024-03-23T07:28:22;8.00;99.90
34873;DHT22;21084;51.098;14.506;2024-03-23T07:31:00;8.00;99.90
34873;DHT22;21084;51.098;14.506;2024-03-23T07:33:26;8.10;99.90
34873;DHT22;21084;51.098;14.506;2024-03-23T07:35:54;8.20;99.90
34873;DHT22;21084;51.098;14.506;2024-03-23T07:38:20;8.20;99.90
34873;DHT22;21084;51.098;14.506;2024-03-23T07:40:50;8.30;99.90
34873;DHT22;21084;51.098;14.506;2024-03-23T07:43:21;8.40;99.90
34873;DHT22;21084;51.098;14.506;2024-03-23T07:45:51;8.40;99.90
34873;DHT22;21084;51.098;14.506;2024-03-23T07:48:20;8.50;99.90
34873;DHT22;21084;51.098;14.506;2024-03-23T07:50:55;8.50;99.90
34873;DHT22;21084;51.098;14.506;2024-03-23T07:53:22;8.60;99.90
34873;DHT22;21084;51.098;14.506;2024-03-23T07:55:52;8.60;99.90
34873;DHT22;21084;51.098;14.506;2024-03-23T07:58:19;8.70;99.90
34873;DHT22;21084;51.098;14.506;2024-03-23T08:00:45;8.70;99.90
34873;DHT22;21084;51.098;14.506;2024-03-23T08:03:13;8.80;99.90
34873;DHT22;21084;51.098;14.506;2024-03-23T08:05:40;8.80;99.90
34873;DHT22;21084;51.098;14.506;2024-03-23T08:08:07;8.90;99.90
34873;DHT22;21084;51.098;14.506;2024-03-23T08:10:34;9.00;99.90
34873;DHT22;21084;51.098;14.506;2024-03-23T08:13:01;9.20;99.90
34873;DHT22;21084;51.098;14.506;2024-03-23T08:15:29;9.30;99.90
34873;DHT22;21084;51.098;14.506;2024-03-23T08:17:59;9.40;99.90
34873;DHT22;21084;51.098;14.506;2024-03-23T08:20:25;9.50;99.90
34873;DHT22;21084;51.098;14.506;2024-03-23T08:22:54;9.70;99.90
34873;DHT22;21084;51.098;14.506;2024-03-23T08:25:20;9.80;99.90
34873;DHT22;21084;51.098;14.506;2024-03-23T08:27:47;9.90;99.90
34873;DHT22;21084;51.098;14.506;2024-03-23T08:30:14;9.90;99.90
34873;DHT22;21084;51.098;14.506;2024-03-23T08:32:41;10.10;99.90
34873;DHT22;21084;51.098;14.506;2024-03-23T08:35:08;10.30;99.90
34873;DHT22;21084;51.098;14.506;2024-03-23T08:37:35;10.60;99.90
34873;DHT22;21084;51.098;14.506;2024-03-23T08:40:03;10.80;99.90
34873;DHT22;21084;51.098;14.506;2024-03-23T08:42:31;11.10;99.90
34873;DHT22;21084;51.098;14.506;2024-03-23T08:44:57;11.20;99.90
34873;DHT22;21084;51.098;14.506;2024-03-23T08:47:24;11.10;99.90
34873;DHT22;21084;51.098;14.506;2024-03-23T08:49:50;11.20;99.90
34873;DHT22;21084;51.098;14.506;2024-03-23T08:52:18;11.30;99.90
34873;DHT22;21084;51.098;14.506;2024-03-23T08:54:44;11.40;99.90
34873;DHT22;21084;51.098;14.506;2024-03-23T08:57:13;11.60;99.90
34873;DHT22;21084;51.098;14.506;2024-03-23T08:59:39;11.40;99.90
34873;DHT22;21084;51.098;14.506;2024-03-23T09:02:06;11.50;99.90
34873;DHT22;21084;51.098;14.506;2024-03-23T09:04:33;11.70;99.90
34873;DHT22;21084;51.098;14.506;2024-03-23T09:07:01;12.10;99.90
34873;DHT22;21084;51.098;14.506;2024-03-23T09:09:27;12.30;99.90
34873;DHT22;21084;51.098;14.506;2024-03-23T09:11:54;12.50;99.90
34873;DHT22;21084;51.098;14.506;2024-03-23T09:14:22;12.80;99.90
34873;DHT22;21084;51.098;14.506;2024-03-23T09:16:50;12.50;99.90
34873;DHT22;21084;51.098;14.506;2024-03-23T09:19:16;12.10;99.90
34873;DHT22;21084;51.098;14.506;2024-03-23T09:21:43;11.70;99.90
34873;DHT22;21084;51.098;14.506;2024-03-23T09:24:10;11.80;99.90
34873;DHT22;21084;51.098;14.506;2024-03-23T09:26:37;11.80;99.90
34873;DHT22;21084;51.098;14.506;2024-03-23T09:29:03;11.80;99.90
34873;DHT22;21084;51.098;14.506;2024-03-23T09:31:32;11.90;99.90
34873;DHT22;21084;51.098;14.506;2024-03-23T09:33:59;12.00;99.90
34873;DHT22;21084;51.098;14.506;2024-03-23T09:36:26;12.10;99.90
34873;DHT22;21084;51.098;14.506;2024-03-23T09:38:53;11.90;99.90
34873;DHT22;21084;51.098;14.506;2024-03-23T09:41:20;11.70;99.90
34873;DHT22;21084;51.098;14.506;2024-03-23T09:43:46;11.50;99.90
34873;DHT22;21084;51.098;14.506;2024-03-23T09:46:14;11.50;99.90
34873;DHT22;21084;51.098;14.506;2024-03-23T09:48:41;11.50;99.90
34873;DHT22;21084;51.098;14.506;2024-03-23T09:51:12;11.50;99.90
34873;DHT22;21084;51.098;14.506;2024-03-23T09:53:38;11.40;99.90
34873;DHT22;21084;51.098;14.506;2024-03-23T09:56:05;11.30;99.90
34873;DHT22;21084;51.098;14.506;2024-03-23T09:58:33;11.30;99.90
34873;DHT22;21084;51.098;14.506;2024-03-23T10:01:01;11.30;99.90
34873;DHT22;21084;51.098;14.506;2024-03-23T10:03:27;11.20;99.90
34873;DHT22;21084;51.098;14.506;2024-03-23T10:06:02;11.20;99.90
34873;DHT22;21084;51.098;14.506;2024-03-23T10:08:30;11.10;99.90
34873;DHT22;21084;51.098;14.506;2024-03-23T10:10:59;11.10;99.90
34873;DHT22;21084;51.098;14.506;2024-03-23T10:13:38;11.00;99.90
34873;DHT22;21084;51.098;14.506;2024-03-23T10:16:08;10.80;99.90
34873;DHT22;21084;51.098;14.506;2024-03-23T10:18:37;10.70;99.90
34873;DHT22;21084;51.098;14.506;2024-03-23T10:21:09;10.60;99.90
34873;DHT22;21084;51.098;14.506;2024-03-23T10:23:37;10.60;99.90
34873;DHT22;21084;51.098;14.506;2024-03-23T10:26:17;10.50;99.90
34873;DHT22;21084;51.098;14.506;2024-03-23T10:28:54;10.60;99.90
34873;DHT22;21084;51.098;14.506;2024-03-23T10:31:26;10.50;99.90
34873;DHT22;21084;51.098;14.506;2024-03-23T10:33:53;10.40;99.90
34873;DHT22;21084;51.098;14.506;2024-03-23T10:36:23;10.30;99.90
34873;DHT22;21084;51.098;14.506;2024-03-23T10:38:50;10.10;99.90
34873;DHT22;21084;51.098;14.506;2024-03-23T10:41:17;10.00;99.90
34873;DHT22;21084;51.098;14.506;2024-03-23T10:43:45;9.80;99.90
34873;DHT22;21084;51.098;14.506;2024-03-23T10:46:12;9.60;99.90
34873;DHT22;21084;51.098;14.506;2024-03-23T10:48:38;9.40;99.90
34873;DHT22;21084;51.098;14.506;2024-03-23T10:51:06;9.30;99.90
34873;DHT22;21084;51.098;14.506;2024-03-23T10:53:34;9.20;99.90
34873;DHT22;21084;51.098;14.506;2024-03-23T10:56:03;9.20;99.90
34873;DHT22;21084;51.098;14.506;2024-03-23T10:58:31;9.20;99.90
34873;DHT22;21084;51.098;14.506;2024-03-23T11:00:58;9.10;99.90
34873;DHT22;21084;51.098;14.506;2024-03-23T11:03:34;9.00;99.90
34873;DHT22;21084;51.098;14.506;2024-03-23T11:06:02;8.90;99.90
34873;DHT22;21084;51.098;14.506;2024-03-23T11:08:33;8.50;99.90
34873;DHT22;21084;51.098;14.506;2024-03-23T11:11:20;7.80;99.90
34873;DHT22;21084;51.098;14.506;2024-03-23T11:13:47;7.30;99.90
34873;DHT22;21084;51.098;14.506;2024-03-23T11:16:16;6.90;99.90
34873;DHT22;21084;51.098;14.506;2024-03-23T11:18:42;6.60;99.90
34873;DHT22;21084;51.098;14.506;2024-03-23T11:21:10;6.40;99.90
34873;DHT22;21084;51.098;14.506;2024-03-23T11:23:37;6.30;99.90
34873;DHT22;21084;51.098;14.506;2024-03-23T11:26:08;6.20;99.90
34873;DHT22;21084;51.098;14.506;2024-03-23T11:28:36;5.90;99.90
34873;DHT22;21084;51.098;14.506;2024-03-23T11:31:09;5.60;99.90
34873;DHT22;21084;51.098;14.506;2024-03-23T11:33:35;5.40;99.90
34873;DHT22;21084;51.098;14.506;2024-03-23T11:36:02;5.30;99.90
34873;DHT22;21084;51.098;14.506;2024-03-23T11:38:29;5.30;99.90
34873;DHT22;21084;51.098;14.506;2024-03-23T11:40:56;5.20;99.90
34873;DHT22;21084;51.098;14.506;2024-03-23T11:43:28;5.10;99.90
34873;DHT22;21084;51.098;14.506;2024-03-23T11:45:57;4.90;99.90
34873;DHT22;21084;51.098;14.506;2024-03-23T11:48:24;4.90;99.90
34873;DHT22;21084;51.098;14.506;2024-03-23T11:50:53;4.90;99.90
34873;DHT22;21084;51.098;14.506;2024-03-23T11:53:22;4.90;99.90
34873;DHT22;21084;51.098;14.506;2024-03-23T11:55:49;4.80;99.90
34873;DHT22;21084;51.098;14.506;2024-03-23T11:58:16;4.80;99.90
34873;DHT22;21084;51.098;14.506;2024-03-23T12:00:49;4.80;99.90
34873;DHT22;21084;51.098;14.506;2024-03-23T12:03:17;4.90;99.90
34873;DHT22;21084;51.098;14.506;2024-03-23T12:05:47;4.80;99.90
34873;DHT22;21084;51.098;14.506;2024-03-23T12:08:20;4.70;99.90
34873;DHT22;21084;51.098;14.506;2024-03-23T12:10:49;4.80;99.90
34873;DHT22;21084;51.098;14.506;2024-03-23T12:13:16;4.80;99.90
34873;DHT22;21084;51.098;14.506;2024-03-23T12:15:44;4.90;99.90
34873;DHT22;21084;51.098;14.506;2024-03-23T12:18:11;4.90;99.90
34873;DHT22;21084;51.098;14.506;2024-03-23T12:20:39;4.90;99.90
34873;DHT22;21084;51.098;14.506;2024-03-23T12:23:06;4.90;99.90
34873;DHT22;21084;51.098;14.506;2024-03-23T12:25:34;4.90;99.90
34873;DHT22;21084;51.098;14.506;2024-03-23T12:28:00;5.00;99.90
34873;DHT22;21084;51.098;14.506;2024-03-23T12:30:28;5.20;99.90
34873;DHT22;21084;51.098;14.506;2024-03-23T12:32:54;5.40;99.90
34873;DHT22;21084;51.098;14.506;2024-03-23T12:35:21;5.30;99.90
34873;DHT22;21084;51.098;14.506;2024-03-23T12:37:49;5.10;99.90
34873;DHT22;21084;51.098;14.506;2024-03-23T12:40:16;5.10;99.90
34873;DHT22;21084;51.098;14.506;2024-03-23T12:42:42;5.00;99.90
34873;DHT22;21084;51.098;14.506;2024-03-23T12:45:09;4.90;99.90
34873;DHT22;21084;51.098;14.506;2024-03-23T12:47:36;4.70;99.90
34873;DHT22;21084;51.098;14.506;2024-03-23T12:50:03;4.70;99.90
34873;DHT22;21084;51.098;14.506;2024-03-23T12:52:30;4.90;99.90
34873;DHT22;21084;51.098;14.506;2024-03-23T12:54:58;4.80;99.90
34873;DHT22;21084;51.098;14.506;2024-03-23T12:57:25;4.90;99.90
34873;DHT22;21084;51.098;14.506;2024-03-23T12:59:52;4.90;99.90
34873;DHT22;21084;51.098;14.506;2024-03-23T13:02:19;4.90;99.90
34873;DHT22;21084;51.098;14.506;2024-03-23T13:04:48;4.90;99.90
34873;DHT22;21084;51.098;14.506;2024-03-23T13:07:15;5.10;99.90
34873;DHT22;21084;51.098;14.506;2024-03-23T13:09:42;5.00;99.90
34873;DHT22;21084;51.098;14.506;2024-03-23T13:12:10;5.00;99.90
34873;DHT22;21084;51.098;14.506;2024-03-23T13:14:38;5.00;99.90
34873;DHT22;21084;51.098;14.506;2024-03-23T13:17:04;5.00;99.90
34873;DHT22;21084;51.098;14.506;2024-03-23T13:19:31;5.10;99.90
34873;DHT22;21084;51.098;14.506;2024-03-23T13:21:57;5.10;99.90
34873;DHT22;21084;51.098;14.506;2024-03-23T13:24:26;5.20;99.90
34873;DHT22;21084;51.098;14.506;2024-03-23T13:26:52;5.10;99.90
34873;DHT22;21084;51.098;14.506;2024-03-23T13:29:21;5.00;99.90
34873;DHT22;21084;51.098;14.506;2024-03-23T13:31:48;5.00;99.90
34873;DHT22;21084;51.098;14.506;2024-03-23T13:34:15;4.90;99.90
34873;DHT22;21084;51.098;14.506;2024-03-23T13:36:42;5.00;99.90
34873;DHT22;21084;51.098;14.506;2024-03-23T13:39:09;5.00;99.90
34873;DHT22;21084;51.098;14.506;2024-03-23T13:41:37;4.90;99.90
34873;DHT22;21084;51.098;14.506;2024-03-23T13:44:05;4.90;99.90
34873;DHT22;21084;51.098;14.506;2024-03-23T13:46:33;4.90;99.90
34873;DHT22;21084;51.098;14.506;2024-03-23T13:49:00;5.00;99.90
34873;DHT22;21084;51.098;14.506;2024-03-23T13:51:27;5.10;99.90
34873;DHT22;21084;51.098;14.506;2024-03-23T13:53:54;5.10;99.90
34873;DHT22;21084;51.098;14.506;2024-03-23T13:56:22;5.10;99.90
34873;DHT22;21084;51.098;14.506;2024-03-23T13:58:50;5.20;99.90
34873;DHT22;21084;51.098;14.506;2024-03-23T14:01:16;5.20;99.90
34873;DHT22;21084;51.098;14.506;2024-03-23T14:03:45;5.20;99.90
34873;DHT22;21084;51.098;14.506;2024-03-23T14:06:11;5.20;99.90
34873;DHT22;21084;51.098;14.506;2024-03-23T14:08:39;5.20;99.90
34873;DHT22;21084;51.098;14.506;2024-03-23T14:11:05;5.20;99.90
34873;DHT22;21084;51.098;14.506;2024-03-23T14:13:33;5.20;99.90
34873;DHT22;21084;51.098;14.506;2024-03-23T14:15:59;5.10;99.90
34873;DHT22;21084;51.098;14.506;2024-03-23T14:18:26;5.20;99.90
34873;DHT22;21084;51.098;14.506;2024-03-23T14:20:56;5.40;99.90
34873;DHT22;21084;51.098;14.506;2024-03-23T14:23:24;5.70;99.90
34873;DHT22;21084;51.098;14.506;2024-03-23T14:25:54;5.90;99.90
34873;DHT22;21084;51.098;14.506;2024-03-23T14:28:22;6.00;99.90
34873;DHT22;21084;51.098;14.506;2024-03-23T14:30:48;6.30;99.90
34873;DHT22;21084;51.098;14.506;2024-03-23T14:33:16;6.40;99.90
34873;DHT22;21084;51.098;14.506;2024-03-23T14:35:43;6.90;99.90
34873;DHT22;21084;51.098;14.506;2024-03-23T14:38:13;7.30;99.90
34873;DHT22;21084;51.098;14.506;2024-03-23T14:40:40;7.20;99.90
34873;DHT22;21084;51.098;14.506;2024-03-23T14:43:07;7.00;99.90
34873;DHT22;21084;51.098;14.506;2024-03-23T14:45:33;6.60;99.90
34873;DHT22;21084;51.098;14.506;2024-03-23T14:48:01;6.60;99.90
34873;DHT22;21084;51.098;14.506;2024-03-23T14:50:28;6.60;99.90
34873;DHT22;21084;51.098;14.506;2024-03-23T14:52:55;6.60;99.90
34873;DHT22;21084;51.098;14.506;2024-03-23T14:55:23;6.40;99.90
34873;DHT22;21084;51.098;14.506;2024-03-23T14:57:51;6.50;99.90
34873;DHT22;21084;51.098;14.506;2024-03-23T15:00:17;6.80;99.90
34873;DHT22;21084;51.098;14.506;2024-03-23T15:02:45;6.90;99.90
34873;DHT22;21084;51.098;14.506;2024-03-23T15:05:11;6.70;99.90
34873;DHT22;21084;51.098;14.506;2024-03-23T15:07:39;6.30;99.90
34873;DHT22;21084;51.098;14.506;2024-03-23T15:10:06;6.10;99.90
34873;DHT22;21084;51.098;14.506;2024-03-23T15:12:35;6.20;99.90
34873;DHT22;21084;51.098;14.506;2024-03-23T15:15:01;6.20;99.90
34873;DHT22;21084;51.098;14.506;2024-03-23T15:17:29;6.20;99.90
34873;DHT22;21084;51.098;14.506;2024-03-23T15:20:00;6.10;99.90
34873;DHT22;21084;51.098;14.506;2024-03-23T15:22:27;6.10;99.90
34873;DHT22;21084;51.098;14.506;2024-03-23T15:24:53;6.10;99.90
34873;DHT22;21084;51.098;14.506;2024-03-23T15:27:21;6.10;99.90
34873;DHT22;21084;51.098;14.506;2024-03-23T15:29:48;6.20;99.90
34873;DHT22;21084;51.098;14.506;2024-03-23T15:32:15;6.20;99.90
34873;DHT22;21084;51.098;14.506;2024-03-23T15:34:43;6.30;99.90
34873;DHT22;21084;51.098;14.506;2024-03-23T15:37:10;6.10;99.90
34873;DHT22;21084;51.098;14.506;2024-03-23T15:39:36;6.10;99.90
34873;DHT22;21084;51.098;14.506;2024-03-23T15:42:04;6.00;99.90
34873;DHT22;21084;51.098;14.506;2024-03-23T15:44:31;6.10;99.90
34873;DHT22;21084;51.098;14.506;2024-03-23T15:47:00;6.10;99.90
34873;DHT22;21084;51.098;14.506;2024-03-23T15:49:26;6.00;99.90
34873;DHT22;21084;51.098;14.506;2024-03-23T15:51:53;6.00;99.90
34873;DHT22;21084;51.098;14.506;2024-03-23T15:54:20;6.00;99.90
34873;DHT22;21084;51.098;14.506;2024-03-23T15:56:48;6.00;99.90
34873;DHT22;21084;51.098;14.506;2024-03-23T15:59:14;6.00;99.90
34873;DHT22;21084;51.098;14.506;2024-03-23T16:01:42;5.90;99.90
34873;DHT22;21084;51.098;14.506;2024-03-23T16:04:11;5.80;99.90
34873;DHT22;21084;51.098;14.506;2024-03-23T16:06:38;5.80;99.90
34873;DHT22;21084;51.098;14.506;2024-03-23T16:09:07;5.80;99.90
34873;DHT22;21084;51.098;14.506;2024-03-23T16:11:35;5.80;99.90
34873;DHT22;21084;51.098;14.506;2024-03-23T16:14:01;5.80;99.90
34873;DHT22;21084;51.098;14.506;2024-03-23T16:16:28;5.80;99.90
34873;DHT22;21084;51.098;14.506;2024-03-23T16:18:54;5.80;99.90
34873;DHT22;21084;51.098;14.506;2024-03-23T16:21:23;5.90;99.90
34873;DHT22;21084;51.098;14.506;2024-03-23T16:23:49;5.90;99.90
34873;DHT22;21084;51.098;14.506;2024-03-23T16:26:16;5.80;99.90